Time;durP1;ratioP1;P1;durP2;ratioP2;P2;SDS_P1;SDS_P2;PMS_P1;PMS_P2;Temp;Humidity;BMP_temperature;BMP_pressure;BME280_temperature;BME280_humidity;BME280_pressure;Samples;Min_cycle;Max_cycle;Signal;HPM_P1;HPM_P2
2022/04/11 00:00:56;;;;;;;1.50;1.50;;;;;;;7.01;100.00;98762.34;5114331;28;20286;-71
2022/04/11 00:03:23;;;;;;;2.30;2.20;;;;;;;7.03;100.00;98768.25;5115186;28;20199;-72
2022/04/11 00:05:50;;;;;;;1.73;1.63;;;;;;;7.06;100.00;98769.88;5115148;28;20612;-72
2022/04/11 00:08:19;;;;;;;1.90;1.80;;;;;;;7.13;100.00;98774.78;5114448;28;20289;-72
2022/04/11 00:10:47;;;;;;;1.93;1.83;;;;;;;7.11;100.00;98778.25;5114750;28;20195;-72
2022/04/11 00:13:13;;;;;;;1.77;1.77;;;;;;;7.10;100.00;98785.06;5114479;28;20205;-73
2022/04/11 00:15:41;;;;;;;2.43;2.33;;;;;;;7.17;100.00;98790.84;5114611;28;20638;-72
2022/04/11 00:18:09;;;;;;;1.57;1.57;;;;;;;7.16;100.00;98790.00;5113659;28;20573;-72
2022/04/11 00:20:37;;;;;;;1.53;1.53;;;;;;;7.14;100.00;98791.72;5113967;28;20591;-72
2022/04/11 00:23:05;;;;;;;2.00;1.90;;;;;;;7.18;100.00;98798.41;5114646;28;20563;-72
2022/04/11 00:25:32;;;;;;;1.80;1.77;;;;;;;7.19;100.00;98800.09;5114389;28;20199;-71
2022/04/11 00:27:59;;;;;;;1.77;1.77;;;;;;;7.22;100.00;98799.19;5114644;28;20686;-71
2022/04/11 00:30:26;;;;;;;2.00;1.90;;;;;;;7.20;100.00;98801.78;5114600;28;20281;-72
2022/04/11 00:32:53;;;;;;;1.80;1.80;;;;;;;7.21;100.00;98817.88;5114410;27;20294;-71
2022/04/11 00:35:21;;;;;;;1.77;1.77;;;;;;;7.19;100.00;98817.94;5114450;28;20293;-71
2022/04/11 00:37:48;;;;;;;2.00;1.90;;;;;;;7.20;100.00;98826.44;5112119;27;20219;-72
2022/04/11 00:40:15;;;;;;;1.70;1.70;;;;;;;7.24;100.00;98826.28;5113009;28;20195;-72
2022/04/11 00:42:42;;;;;;;1.70;1.70;;;;;;;7.19;100.00;98817.09;5110549;28;20281;-72
2022/04/11 00:45:10;;;;;;;2.03;2.03;;;;;;;7.23;100.00;98832.28;5114105;28;20277;-72
2022/04/11 00:47:36;;;;;;;2.13;2.03;;;;;;;7.12;100.00;98811.31;5114053;28;20202;-72
2022/04/11 00:50:05;;;;;;;2.40;2.30;;;;;;;7.27;100.00;98833.88;5114096;28;20709;-71
2022/04/11 00:52:37;;;;;;;2.00;1.90;;;;;;;7.24;100.00;98839.03;5113735;28;20305;-71
2022/04/11 00:55:07;;;;;;;1.80;1.80;;;;;;;7.23;100.00;98832.28;5114450;28;20206;-72
2022/04/11 00:57:34;;;;;;;1.60;1.60;;;;;;;7.21;100.00;98839.13;5113031;28;20651;-73
2022/04/11 01:00:03;;;;;;;1.60;1.60;;;;;;;7.26;100.00;98847.50;5113615;28;20648;-72
2022/04/11 01:02:30;;;;;;;1.80;1.70;;;;;;;7.21;100.00;98853.56;5111844;27;20195;-72
2022/04/11 01:04:57;;;;;;;1.50;1.50;;;;;;;7.14;100.00;98840.16;5112124;28;20749;-72
2022/04/11 01:07:24;;;;;;;1.97;1.87;;;;;;;7.15;100.00;98844.38;5112051;28;20210;-72
2022/04/11 01:09:53;;;;;;;1.67;1.67;;;;;;;7.23;100.00;98852.69;5111811;28;20362;-71
2022/04/11 01:12:22;;;;;;;1.40;1.40;;;;;;;7.24;100.00;98861.16;5111780;28;20213;-71
2022/04/11 01:14:49;;;;;;;1.77;1.77;;;;;;;7.24;100.00;98859.44;5110930;27;20317;-71
2022/04/11 01:17:16;;;;;;;2.03;1.97;;;;;;;7.21;100.00;98863.78;5112881;28;20263;-71
2022/04/11 01:19:43;;;;;;;2.03;1.93;;;;;;;7.23;100.00;98869.69;5110999;28;20210;-71
2022/04/11 01:22:11;;;;;;;1.60;1.60;;;;;;;7.15;100.00;98858.84;5113624;28;20203;-72
2022/04/11 01:24:39;;;;;;;1.37;1.37;;;;;;;7.21;100.00;98874.81;5113259;28;20733;-70
2022/04/11 01:27:06;;;;;;;2.13;2.03;;;;;;;7.11;100.00;98865.72;5113412;28;20195;-73
2022/04/11 01:29:34;;;;;;;2.00;1.90;;;;;;;7.21;100.00;98879.91;5113175;28;20199;-72
2022/04/11 01:32:04;;;;;;;2.10;2.00;;;;;;;7.23;100.00;98888.38;5113199;28;20195;-72
2022/04/11 01:34:31;;;;;;;1.83;1.73;;;;;;;7.24;100.00;98889.19;5113173;28;20218;-71
2022/04/11 01:36:58;;;;;;;1.77;1.77;;;;;;;7.25;100.00;98891.72;5113139;28;20191;-72
2022/04/11 01:39:26;;;;;;;2.03;1.97;;;;;;;7.23;100.00;98898.56;5112804;28;20770;-72
2022/04/11 01:41:53;;;;;;;1.90;1.90;;;;;;;7.29;100.00;98897.56;5112419;28;20755;-72
2022/04/11 01:44:20;;;;;;;1.70;1.60;;;;;;;7.21;100.00;98894.38;5113203;28;20194;-72
2022/04/11 01:46:50;;;;;;;2.00;1.90;;;;;;;7.27;100.00;98910.34;5112823;28;20658;-71
2022/04/11 01:49:17;;;;;;;1.97;1.87;;;;;;;7.25;100.00;98912.09;5113088;28;20234;-72
2022/04/11 01:51:44;;;;;;;2.13;2.03;;;;;;;7.24;100.00;98912.13;5112705;28;20281;-72
2022/04/11 01:54:11;;;;;;;2.20;2.10;;;;;;;7.19;100.00;98907.16;5112765;28;20194;-72
2022/04/11 01:56:39;;;;;;;2.00;2.00;;;;;;;7.32;100.00;98933.19;5112746;28;20201;-74
2022/04/11 01:59:06;;;;;;;1.97;1.93;;;;;;;7.28;100.00;98906.09;5110937;28;20307;-73
2022/04/11 02:01:33;;;;;;;2.10;2.10;;;;;;;7.34;100.00;98936.53;5112634;28;20664;-72
2022/04/11 02:04:00;;;;;;;2.30;2.20;;;;;;;7.38;100.00;98928.78;5112509;27;20589;-72
2022/04/11 02:06:27;;;;;;;2.30;2.20;;;;;;;7.38;100.00;98938.13;5112596;28;20198;-72
2022/04/11 02:08:54;;;;;;;2.30;2.20;;;;;;;7.42;100.00;98944.00;5111512;28;20277;-72
2022/04/11 02:11:21;;;;;;;2.40;2.30;;;;;;;7.42;100.00;98938.91;5112275;28;20293;-72
2022/04/11 02:13:49;;;;;;;2.33;2.23;;;;;;;7.30;100.00;98920.47;5111388;28;20286;-72
2022/04/11 02:16:17;;;;;;;2.20;2.10;;;;;;;7.43;100.00;98955.88;5110103;28;20753;-72
2022/04/11 02:18:44;;;;;;;2.70;2.50;;;;;;;7.35;100.00;98941.59;5112431;28;20300;-72
2022/04/11 02:21:11;;;;;;;2.70;2.60;;;;;;;7.51;100.00;98964.16;5111855;28;20195;-72
2022/04/11 02:23:38;;;;;;;2.63;2.53;;;;;;;7.52;100.00;98976.91;5111667;28;20202;-73
2022/04/11 02:26:05;;;;;;;2.20;2.10;;;;;;;7.56;100.00;98982.75;5112131;28;20206;-72
2022/04/11 02:28:32;;;;;;;2.30;2.20;;;;;;;7.54;100.00;98987.03;5111989;28;20285;-72
2022/04/11 02:31:00;;;;;;;2.40;2.30;;;;;;;7.48;100.00;98989.75;5110740;28;20282;-72
2022/04/11 02:33:27;;;;;;;2.20;2.10;;;;;;;7.52;100.00;98976.06;5112206;28;20321;-73
2022/04/11 02:35:54;;;;;;;2.27;2.17;;;;;;;7.57;100.00;98984.41;5108349;28;20301;-72
2022/04/11 02:38:22;;;;;;;2.70;2.50;;;;;;;7.65;100.00;98977.41;5112107;28;20317;-74
2022/04/11 02:40:49;;;;;;;2.37;2.27;;;;;;;7.63;100.00;98990.19;5112160;28;20202;-73
2022/04/11 02:43:16;;;;;;;2.57;2.47;;;;;;;7.66;100.00;99002.88;5109166;28;20205;-72
2022/04/11 02:45:43;;;;;;;2.57;2.47;;;;;;;7.70;100.00;99006.19;5110067;27;20214;-73
2022/04/11 02:48:11;;;;;;;2.30;2.20;;;;;;;7.71;100.00;99010.44;5110631;28;20746;-73
2022/04/11 02:50:38;;;;;;;2.03;2.03;;;;;;;7.66;100.00;99012.25;5109499;28;20574;-73
2022/04/11 02:53:06;;;;;;;2.23;2.13;;;;;;;7.69;100.00;99025.75;5112083;28;20273;-72
2022/04/11 02:55:33;;;;;;;1.90;1.80;;;;;;;7.71;100.00;99030.84;5111179;28;20305;-73
2022/04/11 02:57:59;;;;;;;1.93;1.93;;;;;;;7.71;100.00;99031.69;5111776;28;20281;-74
2022/04/11 03:00:26;;;;;;;1.77;1.73;;;;;;;7.70;100.00;99039.34;5111962;28;20202;-72
2022/04/11 03:02:53;;;;;;;2.03;1.93;;;;;;;7.74;100.00;99038.41;5110876;28;20401;-73
2022/04/11 03:05:21;;;;;;;1.47;1.47;;;;;;;7.68;100.00;99051.31;5109758;28;20199;-75
2022/04/11 03:07:48;;;;;;;1.13;1.13;;;;;;;7.64;100.00;99065.03;5107002;28;20198;-73
2022/04/11 03:10:15;;;;;;;1.43;1.43;;;;;;;7.65;100.00;99064.16;5108833;28;20733;-73
2022/04/11 03:12:42;;;;;;;1.33;1.33;;;;;;;7.69;100.00;99068.31;5109613;28;20209;-73
2022/04/11 03:15:10;;;;;;;1.50;1.50;;;;;;;7.67;100.00;99070.91;5108549;28;20211;-73
2022/04/11 03:17:37;;;;;;;1.40;1.40;;;;;;;7.73;100.00;99077.56;5109957;28;20210;-73
2022/04/11 03:20:05;;;;;;;1.10;1.10;;;;;;;7.73;100.00;99082.66;5111333;28;20668;-73
2022/04/11 03:22:34;;;;;;;1.10;1.10;;;;;;;7.74;100.00;99079.25;5111256;28;20750;-72
2022/04/11 03:25:01;;;;;;;1.37;1.23;;;;;;;7.70;100.00;99087.84;5111648;28;20191;-73
2022/04/11 03:27:28;;;;;;;0.73;0.73;;;;;;;7.73;100.00;99097.97;5111353;28;20290;-73
2022/04/11 03:29:54;;;;;;;2.17;1.43;;;;;;;7.65;100.00;99089.66;5110829;28;20233;-73
2022/04/11 03:32:21;;;;;;;1.37;1.37;;;;;;;7.72;100.00;99107.31;5111300;28;20738;-73
2022/04/11 03:34:50;;;;;;;1.17;1.17;;;;;;;7.65;100.00;99110.06;5111213;28;20769;-73
2022/04/11 03:37:17;;;;;;;1.17;1.17;;;;;;;7.65;100.00;99115.19;5111032;28;20213;-73
2022/04/11 03:39:45;;;;;;;1.60;1.50;;;;;;;7.64;100.00;99111.78;5109703;28;20325;-72
2022/04/11 03:42:13;;;;;;;2.27;1.10;;;;;;;7.59;100.00;99120.41;5111226;28;20638;-73
2022/04/11 03:44:42;;;;;;;1.33;1.33;;;;;;;7.59;100.00;99122.97;5111075;28;20209;-72
2022/04/11 03:47:09;;;;;;;0.90;0.90;;;;;;;7.58;100.00;99128.94;5111009;28;20206;-73
2022/04/11 03:49:36;;;;;;;1.10;1.10;;;;;;;7.60;100.00;99132.28;5110588;28;20277;-73
2022/04/11 03:52:03;;;;;;;1.40;1.40;;;;;;;7.60;100.00;99130.56;5110577;28;20209;-73
2022/04/11 03:54:30;;;;;;;4.63;0.90;;;;;;;7.61;100.00;99141.63;5108647;28;20206;-73
2022/04/11 03:56:59;;;;;;;1.03;1.03;;;;;;;7.60;100.00;99142.47;5110901;28;20229;-73
2022/04/11 03:59:25;;;;;;;1.17;1.17;;;;;;;7.63;100.00;99143.25;5111128;28;20209;-73
2022/04/11 04:01:52;;;;;;;1.37;1.37;;;;;;;7.71;100.00;99146.50;5110528;28;20203;-72
2022/04/11 04:04:19;;;;;;;2.57;2.43;;;;;;;7.78;100.00;99152.28;5110792;28;20749;-74
2022/04/11 04:06:46;;;;;;;2.40;2.30;;;;;;;7.85;100.00;99158.94;5110331;28;20277;-73
2022/04/11 04:09:13;;;;;;;1.73;1.70;;;;;;;7.93;100.00;99162.13;5110206;28;20203;-73
2022/04/11 04:11:40;;;;;;;1.77;1.40;;;;;;;7.98;100.00;99173.06;5110089;28;20289;-73
2022/04/11 04:14:08;;;;;;;3.43;3.13;;;;;;;8.01;100.00;99174.72;5110531;28;20286;-73
2022/04/11 04:16:37;;;;;;;2.30;2.20;;;;;;;8.00;100.00;99181.53;5110493;28;20233;-73
2022/04/11 04:19:04;;;;;;;2.03;1.93;;;;;;;8.00;100.00;99184.09;5110818;28;20218;-72
2022/04/11 04:21:31;;;;;;;2.17;1.93;;;;;;;7.85;100.00;99171.69;5108982;28;20202;-73
2022/04/11 04:23:58;;;;;;;1.50;1.50;;;;;;;7.98;100.00;99196.03;5110630;28;20202;-72
2022/04/11 04:26:25;;;;;;;1.83;1.73;;;;;;;8.04;100.00;99197.63;5110670;28;20676;-73
2022/04/11 04:28:52;;;;;;;1.50;1.50;;;;;;;8.10;100.00;99193.22;5110470;28;20294;-73
2022/04/11 04:31:20;;;;;;;2.47;2.37;;;;;;;8.09;100.00;99199.19;5110970;28;20705;-72
2022/04/11 04:33:47;;;;;;;1.50;1.50;;;;;;;8.03;100.00;99201.06;5114719;28;20203;-73
2022/04/11 04:36:14;;;;;;;1.50;1.40;;;;;;;7.95;100.00;99205.50;5114309;28;20757;-72
2022/04/11 04:38:41;;;;;;;1.27;1.27;;;;;;;7.88;100.00;99208.16;5113884;28;20709;-72
2022/04/11 04:41:08;;;;;;;0.83;0.83;;;;;;;7.83;100.00;99220.22;5113712;28;20198;-72
2022/04/11 04:43:35;;;;;;;1.00;1.00;;;;;;;7.80;100.00;99215.16;5112492;28;20574;-73
2022/04/11 04:46:02;;;;;;;0.70;0.70;;;;;;;7.85;100.00;99222.75;5111068;28;20659;-73
2022/04/11 04:48:30;;;;;;;0.80;0.80;;;;;;;7.81;100.00;99224.50;5113619;28;20301;-73
2022/04/11 04:50:57;;;;;;;0.77;0.77;;;;;;;7.79;100.00;99225.41;5114043;28;20799;-73
2022/04/11 04:53:24;;;;;;;0.77;0.77;;;;;;;7.81;100.00;99236.44;5113642;28;20682;-73
2022/04/11 04:55:52;;;;;;;0.80;0.80;;;;;;;7.79;100.00;99231.34;5113084;28;20210;-72
2022/04/11 04:58:18;;;;;;;0.60;0.60;;;;;;;7.84;100.00;99241.47;5113333;28;20195;-71
2022/04/11 05:00:45;;;;;;;0.60;0.60;;;;;;;7.85;100.00;99248.25;5111426;27;20233;-73
2022/04/11 05:03:12;;;;;;;1.00;1.00;;;;;;;7.80;100.00;99255.16;5113727;27;20306;-73
2022/04/11 05:05:41;;;;;;;0.87;0.87;;;;;;;7.76;100.00;99261.19;5112943;28;20678;-72
2022/04/11 05:08:08;;;;;;;0.90;0.90;;;;;;;7.63;100.00;99252.09;5112466;28;20282;-72
2022/04/11 05:10:35;;;;;;;0.77;0.77;;;;;;;7.65;100.00;99247.84;5112654;28;20293;-72
2022/04/11 05:13:02;;;;;;;0.60;0.60;;;;;;;7.69;100.00;99246.91;5113298;28;20615;-72
2022/04/11 05:15:29;;;;;;;0.60;0.60;;;;;;;7.76;100.00;99245.88;5113339;28;20302;-71
2022/04/11 05:17:56;;;;;;;0.70;0.70;;;;;;;7.82;100.00;99250.84;5113771;28;20772;-72
2022/04/11 05:20:23;;;;;;;0.60;0.60;;;;;;;7.94;100.00;99250.59;5113073;28;20279;-72
2022/04/11 05:22:51;;;;;;;0.70;0.70;;;;;;;8.00;100.00;99255.56;5110585;28;20199;-72
2022/04/11 05:25:19;;;;;;;0.77;0.77;;;;;;;8.08;100.00;99258.78;5113297;28;20672;-72
2022/04/11 05:27:46;;;;;;;0.50;0.50;;;;;;;8.01;100.00;99252.16;5113057;28;20277;-72
2022/04/11 05:30:13;;;;;;;0.53;0.53;;;;;;;8.01;100.00;99251.31;5113031;28;20206;-72
2022/04/11 05:32:40;;;;;;;0.73;0.73;;;;;;;8.10;100.00;99262.16;5112814;28;20726;-72
2022/04/11 05:35:08;;;;;;;0.70;0.70;;;;;;;8.13;100.00;99266.34;5113211;28;20573;-72
2022/04/11 05:37:35;;;;;;;0.60;0.60;;;;;;;8.19;100.00;99267.06;5112699;28;20206;-71
2022/04/11 05:40:05;;;;;;;0.80;0.80;;;;;;;8.23;100.00;99283.16;5113142;28;20281;-72
2022/04/11 05:42:34;;;;;;;0.67;0.67;;;;;;;8.45;100.00;99284.34;5112880;28;20269;-72
2022/04/11 05:45:01;;;;;;;0.63;0.63;;;;;;;8.55;100.00;99279.88;5112618;28;20199;-72
2022/04/11 05:47:28;;;;;;;0.80;0.80;;;;;;;8.70;100.00;99279.50;5112805;28;20195;-72
2022/04/11 05:49:55;;;;;;;0.70;0.70;;;;;;;8.77;100.00;99275.91;5113050;28;20195;-72
2022/04/11 05:52:22;;;;;;;0.50;0.50;;;;;;;8.93;100.00;99277.19;5110453;28;20289;-72
2022/04/11 05:54:49;;;;;;;0.50;0.50;;;;;;;8.89;100.00;99280.72;5108810;28;20305;-71
2022/04/11 05:57:18;;;;;;;0.97;0.97;;;;;;;8.85;100.00;99284.25;5110552;28;20306;-68
2022/04/11 05:59:45;;;;;;;0.60;0.60;;;;;;;8.89;100.00;99290.94;5109795;28;20210;-68
2022/04/11 06:02:11;;;;;;;0.73;0.73;;;;;;;8.98;100.00;99285.63;5107431;28;20195;-67
2022/04/11 06:04:39;;;;;;;0.50;0.50;;;;;;;9.24;100.00;99283.19;5110979;28;20733;-68
2022/04/11 06:07:06;;;;;;;9.77;0.83;;;;;;;9.56;100.00;99284.06;5106664;28;20191;-67
2022/04/11 06:09:33;;;;;;;0.50;0.50;;;;;;;9.68;100.00;99294.78;5109840;28;20329;-68
2022/04/11 06:12:00;;;;;;;0.60;0.60;;;;;;;9.66;99.51;99285.47;5110131;28;20285;-67
2022/04/11 06:14:28;;;;;;;0.70;0.70;;;;;;;9.61;100.00;99293.28;5110185;28;20209;-69
2022/04/11 06:16:55;;;;;;;0.87;0.87;;;;;;;9.60;100.00;99295.84;5108085;28;20309;-69
2022/04/11 06:19:22;;;;;;;0.90;0.90;;;;;;;9.55;100.00;99302.84;5108139;28;20547;-69
2022/04/11 06:21:50;;;;;;;0.50;0.50;;;;;;;9.43;100.00;99294.59;5107410;28;20221;-71
2022/04/11 06:24:17;;;;;;;0.70;0.70;;;;;;;9.36;100.00;99302.50;5109441;28;20202;-72
2022/04/11 06:26:44;;;;;;;0.60;0.60;;;;;;;9.31;100.00;99292.38;5109927;27;20673;-72
2022/04/11 06:29:11;;;;;;;0.60;0.60;;;;;;;9.37;100.00;99294.78;5110174;28;20281;-70
2022/04/11 06:31:40;;;;;;;0.50;0.50;;;;;;;9.43;100.00;99299.72;5109730;28;20203;-72
2022/04/11 06:34:06;;;;;;;0.50;0.50;;;;;;;9.50;100.00;99306.34;5107893;28;20309;-72
2022/04/11 06:36:33;;;;;;;0.50;0.50;;;;;;;9.55;100.00;99305.41;5107032;27;20716;-71
2022/04/11 06:39:00;;;;;;;0.70;0.70;;;;;;;9.54;100.00;99311.38;5108053;28;20229;-72
2022/04/11 06:41:27;;;;;;;0.60;0.60;;;;;;;9.64;100.00;99308.53;5110666;28;20726;-75
2022/04/11 06:43:54;;;;;;;0.50;0.50;;;;;;;9.66;100.00;99318.75;5109993;27;20210;-71
2022/04/11 06:46:21;;;;;;;1.07;0.73;;;;;;;9.78;100.00;99323.53;5110619;28;20203;-71
2022/04/11 06:48:49;;;;;;;1.53;0.63;;;;;;;10.01;100.00;99324.56;5110144;28;20286;-65
2022/04/11 06:51:16;;;;;;;0.87;0.63;;;;;;;10.04;98.40;99344.09;5111076;28;20202;-66
2022/04/11 06:53:43;;;;;;;0.50;0.50;;;;;;;10.22;98.99;99342.75;5110962;28;20209;-69
2022/04/11 06:56:10;;;;;;;0.60;0.60;;;;;;;10.38;98.70;99342.25;5110958;28;20313;-70
2022/04/11 06:58:37;;;;;;;0.60;0.60;;;;;;;10.41;96.15;99342.16;5110467;28;20194;-68
2022/04/11 07:01:04;;;;;;;0.60;0.60;;;;;;;10.28;96.76;99335.72;5108120;28;20214;-69
2022/04/11 07:03:32;;;;;;;0.70;0.70;;;;;;;10.31;95.59;99348.44;5105828;28;20238;-69
2022/04/11 07:06:00;;;;;;;0.97;0.70;;;;;;;10.27;95.63;99362.25;5106802;28;20195;-69
2022/04/11 07:08:27;;;;;;;0.70;0.70;;;;;;;10.25;96.63;99369.13;5109760;28;20729;-69
2022/04/11 07:10:54;;;;;;;0.70;0.70;;;;;;;10.07;96.17;99373.91;5110462;28;20210;-70
2022/04/11 07:13:21;;;;;;;0.70;0.70;;;;;;;10.02;94.96;99382.56;5110615;28;20199;-68
2022/04/11 07:15:48;;;;;;;0.80;0.80;;;;;;;9.88;96.92;99364.19;5110202;28;20202;-69
2022/04/11 07:18:15;;;;;;;0.73;0.73;;;;;;;10.04;97.25;99379.97;5110379;28;20217;-69
2022/04/11 07:20:43;;;;;;;0.70;0.70;;;;;;;9.99;94.01;99392.03;5107957;28;20334;-68
2022/04/11 07:23:12;;;;;;;1.40;0.60;;;;;;;10.06;92.21;99403.78;5111023;28;20199;-69
2022/04/11 07:25:39;;;;;;;0.50;0.50;;;;;;;10.05;92.92;99416.66;5111472;28;20673;-69
2022/04/11 07:28:08;;;;;;;0.87;0.87;;;;;;;10.07;93.39;99408.03;5112548;28;20293;-71
2022/04/11 07:30:38;;;;;;;0.80;0.80;;;;;;;10.09;91.64;99419.06;5110583;28;20202;-68
2022/04/11 07:33:06;;;;;;;0.60;0.60;;;;;;;10.04;92.27;99426.06;5112954;28;20283;-74
2022/04/11 07:35:33;;;;;;;0.80;0.80;;;;;;;10.10;92.88;99422.47;5108037;28;20207;-69
2022/04/11 07:38:01;;;;;;;0.70;0.70;;;;;;;10.06;94.34;99418.31;5104708;28;20227;-70
2022/04/11 07:40:29;;;;;;;0.90;0.90;;;;;;;10.12;93.33;99421.53;5109814;28;20209;-70
2022/04/11 07:42:56;;;;;;;0.70;0.70;;;;;;;10.03;92.59;99414.97;5109040;28;20212;-70
2022/04/11 07:45:24;;;;;;;0.70;0.70;;;;;;;10.05;92.88;99420.03;5108681;28;20280;-70
2022/04/11 07:47:50;;;;;;;0.60;0.60;;;;;;;9.92;90.85;99400.75;5107539;28;20202;-68
2022/04/11 07:50:18;;;;;;;0.80;0.80;;;;;;;10.02;92.28;99427.81;5108210;28;20211;-69
2022/04/11 07:52:46;;;;;;;0.70;0.70;;;;;;;10.07;90.87;99431.09;5112223;28;20203;-70
2022/04/11 07:55:15;;;;;;;1.60;0.80;;;;;;;10.12;91.60;99444.59;5114355;28;20287;-70
2022/04/11 07:57:44;;;;;;;1.17;1.07;;;;;;;10.12;90.91;99444.59;5112861;28;20218;-69
2022/04/11 08:00:13;;;;;;;0.97;0.90;;;;;;;10.24;93.76;99439.16;5111230;28;20206;-69
2022/04/11 08:02:40;;;;;;;0.73;0.73;;;;;;;10.22;92.33;99451.19;5112275;28;20205;-70
2022/04/11 08:05:09;;;;;;;0.80;0.80;;;;;;;10.24;90.66;99456.28;5114099;28;20230;-69
2022/04/11 08:07:37;;;;;;;0.70;0.70;;;;;;;10.27;91.24;99464.72;5114873;28;20659;-72
2022/04/11 08:10:07;;;;;;;1.00;1.00;;;;;;;10.42;91.17;99464.28;5116966;28;20202;-69
2022/04/11 08:12:35;;;;;;;1.10;1.03;;;;;;;10.53;92.51;99469.09;5117756;28;20195;-70
2022/04/11 08:15:05;;;;;;;1.00;1.00;;;;;;;10.80;91.29;99480.25;5116757;28;20198;-70
2022/04/11 08:17:36;;;;;;;1.03;1.03;;;;;;;11.23;91.91;99479.78;5118757;28;20215;-70
2022/04/11 08:20:05;;;;;;;1.27;1.27;;;;;;;11.54;88.29;99481.31;5117931;28;20230;-71
2022/04/11 08:22:32;;;;;;;0.93;0.93;;;;;;;11.68;85.90;99482.59;5114601;28;20213;-70
2022/04/11 08:24:59;;;;;;;1.00;1.00;;;;;;;12.04;87.59;99473.69;5113278;28;20297;-68
2022/04/11 08:27:26;;;;;;;1.10;1.10;;;;;;;12.36;84.66;99478.53;5112611;28;20205;-69
2022/04/11 08:29:52;;;;;;;1.03;1.03;;;;;;;12.51;83.84;99488.25;5112186;28;20567;-70
2022/04/11 08:32:21;;;;;;;1.53;1.43;;;;;;;12.67;81.81;99497.94;5113756;28;20206;-70
2022/04/11 08:34:48;;;;;;;0.87;0.87;;;;;;;12.75;79.55;99486.50;5111749;28;20203;-70
2022/04/11 08:37:14;;;;;;;3.03;1.03;;;;;;;12.67;80.31;99492.81;5113258;28;20229;-70
2022/04/11 08:39:41;;;;;;;1.27;1.27;;;;;;;12.67;78.36;99508.25;5113449;28;20241;-69
2022/04/11 08:42:09;;;;;;;1.40;1.10;;;;;;;12.52;76.33;99510.50;5113520;28;20289;-69
2022/04/11 08:44:37;;;;;;;1.30;1.30;;;;;;;12.39;78.40;99506.69;5112687;28;20224;-69
2022/04/11 08:47:06;;;;;;;1.03;1.00;;;;;;;12.29;78.34;99507.91;5112944;28;20244;-75
2022/04/11 08:49:35;;;;;;;1.20;1.10;;;;;;;12.14;77.34;99512.75;5113475;28;20222;-69
2022/04/11 08:52:05;;;;;;;0.90;0.90;;;;;;;12.06;75.44;99513.84;5112619;28;20297;-69
2022/04/11 08:54:32;;;;;;;1.87;1.10;;;;;;;12.07;76.71;99522.41;5112224;28;20199;-69
2022/04/11 08:56:59;;;;;;;1.70;1.60;;;;;;;12.05;80.58;99519.06;5112238;28;20214;-69
2022/04/11 08:59:26;;;;;;;1.43;1.43;;;;;;;11.95;80.63;99517.69;5111855;28;20293;-69
2022/04/11 09:01:52;;;;;;;1.27;1.27;;;;;;;11.78;78.16;99530.25;5113041;28;20214;-69
2022/04/11 09:04:19;;;;;;;1.60;1.60;;;;;;;11.75;77.71;99536.31;5111741;28;20207;-69
2022/04/11 09:06:57;;;;;;;1.70;1.60;;;;;;;11.65;76.35;99534.91;5112282;28;20290;-69
2022/04/11 09:09:38;;;;;;;1.23;1.23;;;;;;;11.55;79.83;99536.09;5110898;28;20196;-69
2022/04/11 09:12:05;;;;;;;1.63;1.53;;;;;;;11.46;78.25;99552.63;5112364;28;20762;-69
2022/04/11 09:14:35;;;;;;;1.33;1.33;;;;;;;11.29;80.20;99552.31;5108806;28;20210;-69
2022/04/11 09:17:02;;;;;;;1.67;1.67;;;;;;;11.27;80.55;99554.09;5111910;28;20223;-69
2022/04/11 09:19:29;;;;;;;1.80;1.70;;;;;;;11.12;78.88;99556.25;5111040;28;20207;-68
2022/04/11 09:21:57;;;;;;;2.00;1.90;;;;;;;11.05;79.70;99558.16;5109091;27;20260;-68
2022/04/11 09:24:26;;;;;;;1.90;1.80;;;;;;;11.01;81.51;99554.03;5112125;28;20285;-69
2022/04/11 09:26:55;;;;;;;1.63;1.53;;;;;;;10.87;80.09;99569.81;5112010;28;20228;-68
2022/04/11 09:29:23;;;;;;;1.67;1.67;;;;;;;10.82;80.97;99570.81;5110956;28;20210;-72
2022/04/11 09:31:50;;;;;;;2.03;1.93;;;;;;;10.78;79.24;99582.03;5112549;28;20205;-70
2022/04/11 09:34:19;;;;;;;2.03;1.93;;;;;;;10.76;78.34;99581.25;5112219;28;20209;-70
2022/04/11 09:36:48;;;;;;;1.63;1.63;;;;;;;10.79;79.72;99571.72;5105385;28;20244;-70
2022/04/11 09:39:20;;;;;;;1.53;1.53;;;;;;;10.74;79.51;99585.56;5107144;28;20254;-70
2022/04/11 09:41:49;;;;;;;1.97;1.90;;;;;;;10.65;79.02;99578.13;5106210;28;20202;-70
2022/04/11 09:44:21;;;;;;;4.23;2.10;;;;;;;10.81;78.78;99590.50;5110051;27;20199;-70
2022/04/11 09:46:50;;;;;;;2.10;2.00;;;;;;;10.85;80.01;99583.56;5109412;28;20628;-69
2022/04/11 09:49:17;;;;;;;1.70;1.70;;;;;;;10.80;79.09;99588.81;5108478;28;20295;-71
2022/04/11 09:52:07;;;;;;;2.20;2.10;;;;;;;10.73;77.49;99606.97;5109481;28;20203;-71
2022/04/11 09:54:37;;;;;;;2.10;2.00;;;;;;;10.77;78.90;99603.44;5110091;28;20213;-69
2022/04/11 09:57:06;;;;;;;2.00;1.90;;;;;;;10.82;79.27;99612.69;5109820;28;20738;-70
2022/04/11 09:59:33;;;;;;;1.50;1.50;;;;;;;10.73;78.03;99612.94;5110562;28;20199;-70
2022/04/11 10:02:01;;;;;;;1.77;1.67;;;;;;;10.83;77.71;99616.94;5109644;28;20206;-69
2022/04/11 10:04:29;;;;;;;2.13;2.03;;;;;;;10.75;78.03;99615.47;5111545;28;20214;-71
2022/04/11 10:06:57;;;;;;;2.00;1.90;;;;;;;10.77;78.47;99613.69;5106932;28;20693;-71
2022/04/11 10:09:25;;;;;;;1.60;1.60;;;;;;;10.90;77.68;99615.03;5110531;28;20224;-72
2022/04/11 10:11:55;;;;;;;1.87;1.87;;;;;;;10.98;78.69;99610.53;5114279;28;20274;-71
2022/04/11 10:14:26;;;;;;;2.03;1.97;;;;;;;11.13;79.27;99610.09;5113720;28;20747;-71
2022/04/11 10:17:00;;;;;;;1.60;1.50;;;;;;;11.15;74.84;99612.63;5113993;28;20218;-71
2022/04/11 10:19:30;;;;;;;1.63;1.60;;;;;;;11.25;76.92;99596.91;5114292;28;20198;-73
2022/04/11 10:22:03;;;;;;;1.60;1.60;;;;;;;11.41;73.92;99613.53;5113871;28;20253;-75
2022/04/11 10:24:36;;;;;;;1.90;1.50;;;;;;;11.37;72.89;99611.91;5113460;28;20231;-74
2022/04/11 10:27:21;;;;;;;1.70;1.60;;;;;;;11.32;72.68;99608.66;5114813;28;20194;-71
2022/04/11 10:29:50;;;;;;;1.73;1.63;;;;;;;11.53;74.38;99608.00;5102818;28;20207;-72
2022/04/11 10:32:19;;;;;;;1.33;1.33;;;;;;;11.53;72.80;99587.47;5109779;28;20290;-72
2022/04/11 10:34:51;;;;;;;1.70;1.70;;;;;;;11.95;72.96;99605.03;5110228;28;20330;-72
2022/04/11 10:37:20;;;;;;;1.60;1.60;;;;;;;12.28;77.61;99598.75;5110713;28;20218;-71
2022/04/11 10:39:48;;;;;;;1.37;1.37;;;;;;;12.61;72.26;99599.31;5108139;28;20227;-72
2022/04/11 10:42:26;;;;;;;2.10;2.00;;;;;;;12.97;76.92;99592.03;5109262;28;20278;-71
2022/04/11 10:44:56;;;;;;;1.50;1.50;;;;;;;13.14;71.58;99597.44;5111722;28;20285;-72
2022/04/11 10:47:35;;;;;;;1.40;1.40;;;;;;;13.21;67.23;99604.03;5111642;27;20205;-75
2022/04/11 10:50:34;;;;;;;1.60;1.60;;;;;;;13.06;65.81;99601.97;5106956;27;20199;-72
2022/04/11 10:53:10;;;;;;;1.57;1.50;;;;;;;13.05;66.37;99601.13;5103941;28;22081;-69
2022/04/11 10:55:53;;;;;;;1.50;1.50;;;;;;;13.14;68.64;99608.56;5106197;27;20203;-70
2022/04/11 10:58:23;;;;;;;1.63;1.63;;;;;;;13.20;69.21;99597.19;5108188;28;20681;-72
2022/04/11 11:00:51;;;;;;;2.17;2.07;;;;;;;13.23;69.34;99597.06;5111194;27;20214;-72
2022/04/11 11:03:18;;;;;;;2.10;2.00;;;;;;;13.17;67.64;99576.72;5106956;27;20203;-71
2022/04/11 11:05:48;;;;;;;2.17;2.07;;;;;;;13.40;70.94;99593.88;5110293;28;20199;-74
2022/04/11 11:08:32;;;;;;;1.73;1.63;;;;;;;13.50;65.49;99587.47;5106897;28;20674;-72
2022/04/11 11:11:01;;;;;;;1.97;1.87;;;;;;;13.72;66.13;99597.75;5107527;28;20202;-72
2022/04/11 11:13:31;;;;;;;2.83;1.90;;;;;;;13.85;66.53;99586.06;5105173;28;20206;-74
2022/04/11 11:15:59;;;;;;;1.57;1.57;;;;;;;14.02;62.50;99581.88;5106836;28;20203;-73
2022/04/11 11:18:27;;;;;;;2.00;2.00;;;;;;;14.23;61.27;99587.88;5110759;28;20221;-72
2022/04/11 11:20:55;;;;;;;2.60;1.93;;;;;;;14.35;64.53;99587.41;5105175;28;20635;-75
2022/04/11 11:23:30;;;;;;;1.80;1.70;;;;;;;14.18;54.70;99566.63;5109355;28;20293;-73
2022/04/11 11:26:08;;;;;;;1.83;1.73;;;;;;;14.40;60.22;99585.47;5111438;27;20250;-73
2022/04/11 11:28:37;;;;;;;1.47;1.47;;;;;;;14.39;57.07;99582.94;5110888;28;20297;-73
2022/04/11 11:31:04;;;;;;;2.00;1.90;;;;;;;14.46;58.04;99582.63;5111302;28;20625;-74
2022/04/11 11:33:32;;;;;;;1.70;1.70;;;;;;;14.57;58.05;99582.19;5106867;28;20198;-73
2022/04/11 11:35:59;;;;;;;1.60;1.57;;;;;;;14.70;61.92;99573.81;5110420;28;20206;-78
2022/04/11 11:38:28;;;;;;;1.47;1.37;;;;;;;14.57;52.31;99588.16;5109672;28;20230;-77